sensor_id;sensor_type;location;lat;lon;timestamp;pressure;altitude;pressure_sealevel;temperature;humidity
69879;BME280;57161;43.136;24.706;2023-07-31T00:00:12;98748.53;;;30.16;43.68
69879;BME280;57161;43.136;24.706;2023-07-31T00:02:38;98728.75;;;29.99;44.03
69879;BME280;57161;43.136;24.706;2023-07-31T00:05:04;98732.44;;;30.03;43.89
69879;BME280;57161;43.136;24.706;2023-07-31T00:07:30;98730.38;;;30.08;43.57
69879;BME280;57161;43.136;24.706;2023-07-31T00:09:56;98750.69;;;30.16;43.67
69879;BME280;57161;43.136;24.706;2023-07-31T00:12:22;98737.69;;;30.13;43.67
69879;BME280;57161;43.136;24.706;2023-07-31T00:14:48;98715.69;;;29.94;43.74
69879;BME280;57161;43.136;24.706;2023-07-31T00:17:17;98744.16;;;30.13;43.59
69879;BME280;57161;43.136;24.706;2023-07-31T00:19:42;98728.91;;;30.07;43.84
69879;BME280;57161;43.136;24.706;2023-07-31T00:22:08;98739.03;;;30.10;44.03
69879;BME280;57161;43.136;24.706;2023-07-31T00:24:34;98721.53;;;29.98;43.79
69879;BME280;57161;43.136;24.706;2023-07-31T00:26:59;98722.16;;;29.92;44.13
69879;BME280;57161;43.136;24.706;2023-07-31T00:29:24;98732.31;;;29.95;43.84
69879;BME280;57161;43.136;24.706;2023-07-31T00:31:53;98726.72;;;30.05;44.11
69879;BME280;57161;43.136;24.706;2023-07-31T00:34:19;98729.66;;;30.07;43.85
69879;BME280;57161;43.136;24.706;2023-07-31T00:36:44;98733.13;;;30.02;44.09
69879;BME280;57161;43.136;24.706;2023-07-31T00:39:09;98715.13;;;30.01;44.00
69879;BME280;57161;43.136;24.706;2023-07-31T00:41:35;98717.28;;;30.01;43.88
69879;BME280;57161;43.136;24.706;2023-07-31T00:44:00;98705.53;;;29.88;44.13
69879;BME280;57161;43.136;24.706;2023-07-31T00:46:26;98714.31;;;29.95;44.21
69879;BME280;57161;43.136;24.706;2023-07-31T00:48:51;98711.50;;;30.01;43.90
69879;BME280;57161;43.136;24.706;2023-07-31T00:51:17;98707.19;;;30.00;43.71
69879;BME280;57161;43.136;24.706;2023-07-31T00:53:43;98703.38;;;29.89;44.11
69879;BME280;57161;43.136;24.706;2023-07-31T00:56:11;98691.16;;;29.88;43.67
69879;BME280;57161;43.136;24.706;2023-07-31T00:58:36;98704.31;;;30.02;44.02
69879;BME280;57161;43.136;24.706;2023-07-31T01:01:02;98692.03;;;29.97;43.81
69879;BME280;57161;43.136;24.706;2023-07-31T01:03:27;98697.13;;;30.01;44.03
69879;BME280;57161;43.136;24.706;2023-07-31T01:06:18;98687.06;;;30.02;43.94
69879;BME280;57161;43.136;24.706;2023-07-31T01:11:27;98689.91;;;30.00;43.89
69879;BME280;57161;43.136;24.706;2023-07-31T01:13:54;98675.34;;;29.92;44.06
69879;BME280;57161;43.136;24.706;2023-07-31T01:16:20;98674.59;;;29.89;43.97
69879;BME280;57161;43.136;24.706;2023-07-31T01:18:45;98682.72;;;30.01;43.97
69879;BME280;57161;43.136;24.706;2023-07-31T01:27:29;98655.16;;;29.89;44.12
69879;BME280;57161;43.136;24.706;2023-07-31T01:32:25;98636.41;;;29.86;43.68
69879;BME280;57161;43.136;24.706;2023-07-31T01:34:53;98648.75;;;29.93;44.06
69879;BME280;57161;43.136;24.706;2023-07-31T01:37:19;98640.81;;;29.92;43.96
69879;BME280;57161;43.136;24.706;2023-07-31T01:39:45;98640.03;;;29.89;44.04
69879;BME280;57161;43.136;24.706;2023-07-31T01:42:10;98616.03;;;29.72;43.79
69879;BME280;57161;43.136;24.706;2023-07-31T01:44:35;98632.00;;;29.81;44.11
69879;BME280;57161;43.136;24.706;2023-07-31T01:47:01;98642.91;;;29.87;43.94
69879;BME280;57161;43.136;24.706;2023-07-31T01:49:26;98642.22;;;29.91;43.82
69879;BME280;57161;43.136;24.706;2023-07-31T01:51:52;98618.88;;;29.70;43.73
69879;BME280;57161;43.136;24.706;2023-07-31T01:54:17;98650.13;;;29.90;43.99
69879;BME280;57161;43.136;24.706;2023-07-31T01:56:43;98660.97;;;29.92;43.76
69879;BME280;57161;43.136;24.706;2023-07-31T01:59:08;98650.06;;;29.84;43.96
69879;BME280;57161;43.136;24.706;2023-07-31T02:01:34;98650.00;;;29.80;43.84
69879;BME280;57161;43.136;24.706;2023-07-31T02:03:59;98638.31;;;29.72;43.82
69879;BME280;57161;43.136;24.706;2023-07-31T02:06:25;98647.13;;;29.82;44.21
69879;BME280;57161;43.136;24.706;2023-07-31T02:08:50;98654.34;;;29.83;43.95
69879;BME280;57161;43.136;24.706;2023-07-31T02:11:16;98658.66;;;29.82;43.82
69879;BME280;57161;43.136;24.706;2023-07-31T02:13:41;98659.31;;;29.78;44.14
69879;BME280;57161;43.136;24.706;2023-07-31T02:16:07;98656.44;;;29.78;43.87
69879;BME280;57161;43.136;24.706;2023-07-31T02:18:32;98652.09;;;29.77;43.96
69879;BME280;57161;43.136;24.706;2023-07-31T02:20:58;98660.72;;;29.77;44.23
69879;BME280;57161;43.136;24.706;2023-07-31T02:23:23;98645.47;;;29.69;44.10
69879;BME280;57161;43.136;24.706;2023-07-31T02:25:49;98655.53;;;29.68;43.91
69879;BME280;57161;43.136;24.706;2023-07-31T02:28:14;98662.78;;;29.71;43.83
69879;BME280;57161;43.136;24.706;2023-07-31T02:30:44;98654.81;;;29.67;44.10
69879;BME280;57161;43.136;24.706;2023-07-31T02:33:09;98644.47;;;29.52;44.12
69879;BME280;57161;43.136;24.706;2023-07-31T02:35:35;98664.91;;;29.68;44.18
69879;BME280;57161;43.136;24.706;2023-07-31T02:38:00;98648.81;;;29.55;43.97
69879;BME280;57161;43.136;24.706;2023-07-31T02:40:26;98666.34;;;29.69;44.00
69879;BME280;57161;43.136;24.706;2023-07-31T02:42:51;98677.13;;;29.69;43.98
69879;BME280;57161;43.136;24.706;2023-07-31T02:45:17;98674.19;;;29.65;44.25
69879;BME280;57161;43.136;24.706;2023-07-31T02:47:42;98687.22;;;29.70;44.14
69879;BME280;57161;43.136;24.706;2023-07-31T02:50:08;98687.19;;;29.68;44.06
69879;BME280;57161;43.136;24.706;2023-07-31T02:52:34;98686.41;;;29.63;43.93
69879;BME280;57161;43.136;24.706;2023-07-31T02:54:59;98669.50;;;29.45;44.04
69879;BME280;57161;43.136;24.706;2023-07-31T02:57:24;98684.09;;;29.55;44.04
69879;BME280;57161;43.136;24.706;2023-07-31T02:59:50;98689.91;;;29.59;44.19
69879;BME280;57161;43.136;24.706;2023-07-31T03:02:15;98682.00;;;29.60;44.05
69879;BME280;57161;43.136;24.706;2023-07-31T03:04:41;98698.53;;;29.59;43.99
69879;BME280;57161;43.136;24.706;2023-07-31T03:07:06;98677.38;;;29.45;44.12
69879;BME280;57161;43.136;24.706;2023-07-31T03:09:32;98689.81;;;29.53;43.95
69879;BME280;57161;43.136;24.706;2023-07-31T03:11:58;98691.94;;;29.51;44.41
69879;BME280;57161;43.136;24.706;2023-07-31T03:14:23;98677.34;;;29.43;44.29
69879;BME280;57161;43.136;24.706;2023-07-31T03:16:49;98703.47;;;29.53;44.02
69879;BME280;57161;43.136;24.706;2023-07-31T03:19:15;98702.78;;;29.54;44.45
69879;BME280;57161;43.136;24.706;2023-07-31T03:21:40;98702.06;;;29.54;44.08
69879;BME280;57161;43.136;24.706;2023-07-31T03:24:06;98707.13;;;29.55;44.24
69879;BME280;57161;43.136;24.706;2023-07-31T03:26:32;98677.31;;;29.41;44.23
69879;BME280;57161;43.136;24.706;2023-07-31T03:28:58;98699.88;;;29.52;44.09
69879;BME280;57161;43.136;24.706;2023-07-31T03:31:23;98699.91;;;29.54;44.14
69879;BME280;57161;43.136;24.706;2023-07-31T03:33:49;98701.22;;;29.47;44.43
69879;BME280;57161;43.136;24.706;2023-07-31T03:36:14;98700.56;;;29.51;44.03
69879;BME280;57161;43.136;24.706;2023-07-31T03:38:40;98702.56;;;29.44;44.11
69879;BME280;57161;43.136;24.706;2023-07-31T03:41:05;98706.28;;;29.49;44.15
69879;BME280;57161;43.136;24.706;2023-07-31T03:43:32;98683.69;;;29.35;44.32
69879;BME280;57161;43.136;24.706;2023-07-31T03:46:00;98698.91;;;29.42;44.29
69879;BME280;57161;43.136;24.706;2023-07-31T03:48:25;98712.00;;;29.47;44.32
69879;BME280;57161;43.136;24.706;2023-07-31T03:50:51;98710.63;;;29.50;44.23
69879;BME280;57161;43.136;24.706;2023-07-31T03:53:16;98708.97;;;29.41;44.38
69879;BME280;57161;43.136;24.706;2023-07-31T03:55:42;98712.66;;;29.45;44.13
69879;BME280;57161;43.136;24.706;2023-07-31T03:58:07;98710.38;;;29.40;44.49
69879;BME280;57161;43.136;24.706;2023-07-31T04:00:33;98685.50;;;29.16;44.21
69879;BME280;57161;43.136;24.706;2023-07-31T04:02:58;98695.56;;;29.17;44.54
69879;BME280;57161;43.136;24.706;2023-07-31T04:05:24;98726.88;;;29.37;44.17
69879;BME280;57161;43.136;24.706;2023-07-31T04:07:49;98735.69;;;29.45;44.39
69879;BME280;57161;43.136;24.706;2023-07-31T04:10:18;98727.63;;;29.38;44.11
69879;BME280;57161;43.136;24.706;2023-07-31T04:28:30;98744.13;;;29.35;44.57
69879;BME280;57161;43.136;24.706;2023-07-31T04:31:38;98748.53;;;29.40;44.44
69879;BME280;57161;43.136;24.706;2023-07-31T04:34:04;98714.84;;;29.11;44.44
69879;BME280;57161;43.136;24.706;2023-07-31T04:36:30;98700.97;;;28.99;44.50
69879;BME280;57161;43.136;24.706;2023-07-31T04:38:57;98685.72;;;28.92;44.43
69879;BME280;57161;43.136;24.706;2023-07-31T04:41:22;98749.81;;;29.33;44.43
69879;BME280;57161;43.136;24.706;2023-07-31T04:43:48;98719.81;;;29.08;44.41
69879;BME280;57161;43.136;24.706;2023-07-31T04:46:13;98762.88;;;29.38;44.50
69879;BME280;57161;43.136;24.706;2023-07-31T04:48:43;98758.50;;;29.35;44.47
69879;BME280;57161;43.136;24.706;2023-07-31T04:51:09;98763.63;;;29.41;44.28
69879;BME280;57161;43.136;24.706;2023-07-31T04:53:36;98767.28;;;29.43;44.58
69879;BME280;57161;43.136;24.706;2023-07-31T04:56:02;98765.09;;;29.42;44.50
69879;BME280;57161;43.136;24.706;2023-07-31T04:58:27;98751.31;;;29.36;44.24
69879;BME280;57161;43.136;24.706;2023-07-31T05:00:53;98756.22;;;29.29;44.45
69879;BME280;57161;43.136;24.706;2023-07-31T05:03:18;98775.84;;;29.39;44.56
69879;BME280;57161;43.136;24.706;2023-07-31T05:05:44;98757.69;;;29.31;44.49
69879;BME280;57161;43.136;24.706;2023-07-31T05:08:09;98746.09;;;29.26;44.57
69879;BME280;57161;43.136;24.706;2023-07-31T05:10:40;98762.88;;;29.38;44.39
69879;BME280;57161;43.136;24.706;2023-07-31T05:13:05;98763.66;;;29.43;44.62
69879;BME280;57161;43.136;24.706;2023-07-31T05:15:32;98746.19;;;29.31;44.59
69879;BME280;57161;43.136;24.706;2023-07-31T05:18:01;98762.13;;;29.38;44.52
69879;BME280;57161;43.136;24.706;2023-07-31T05:20:26;98760.03;;;29.40;44.45
69879;BME280;57161;43.136;24.706;2023-07-31T05:22:53;98768.63;;;29.38;44.74
69879;BME280;57161;43.136;24.706;2023-07-31T05:25:18;98765.00;;;29.38;44.73
69879;BME280;57161;43.136;24.706;2023-07-31T05:27:44;98765.00;;;29.38;44.47
69879;BME280;57161;43.136;24.706;2023-07-31T05:30:10;98749.06;;;29.31;44.74
69879;BME280;57161;43.136;24.706;2023-07-31T05:32:35;98746.81;;;29.27;44.43
69879;BME280;57161;43.136;24.706;2023-07-31T05:35:01;98762.00;;;29.29;44.54
69879;BME280;57161;43.136;24.706;2023-07-31T05:37:26;98742.28;;;29.16;44.62
69879;BME280;57161;43.136;24.706;2023-07-31T05:39:52;98762.47;;;29.18;44.79
69879;BME280;57161;43.136;24.706;2023-07-31T05:42:17;98762.41;;;29.16;44.79
69879;BME280;57161;43.136;24.706;2023-07-31T05:44:43;98758.66;;;29.09;45.07
69879;BME280;57161;43.136;24.706;2023-07-31T05:47:09;98744.88;;;29.02;45.45
69879;BME280;57161;43.136;24.706;2023-07-31T05:49:34;98757.09;;;29.02;45.42
69879;BME280;57161;43.136;24.706;2023-07-31T05:52:00;98733.81;;;28.90;45.24
69879;BME280;57161;43.136;24.706;2023-07-31T05:54:25;98752.22;;;29.11;45.47
69879;BME280;57161;43.136;24.706;2023-07-31T05:56:51;98760.09;;;29.08;45.74
69879;BME280;57161;43.136;24.706;2023-07-31T05:59:16;98768.72;;;29.08;45.41
69879;BME280;57161;43.136;24.706;2023-07-31T06:01:42;98750.81;;;29.12;45.44
69879;BME280;57161;43.136;24.706;2023-07-31T06:04:07;98762.38;;;29.14;45.60
69879;BME280;57161;43.136;24.706;2023-07-31T06:06:33;98749.22;;;29.05;45.71
69879;BME280;57161;43.136;24.706;2023-07-31T06:08:59;98755.78;;;29.09;45.61
69879;BME280;57161;43.136;24.706;2023-07-31T06:11:24;98763.72;;;29.11;45.42
69879;BME280;57161;43.136;24.706;2023-07-31T06:13:50;98756.41;;;29.04;45.72
69879;BME280;57161;43.136;24.706;2023-07-31T06:16:16;98760.84;;;29.11;45.36
69879;BME280;57161;43.136;24.706;2023-07-31T06:18:42;98753.56;;;29.06;45.70
69879;BME280;57161;43.136;24.706;2023-07-31T06:21:09;98767.41;;;29.13;45.43
69879;BME280;57161;43.136;24.706;2023-07-31T06:23:34;98757.94;;;29.09;45.47
69879;BME280;57161;43.136;24.706;2023-07-31T06:26:00;98770.34;;;29.17;45.53
69879;BME280;57161;43.136;24.706;2023-07-31T06:28:29;98772.50;;;29.17;45.51
69879;BME280;57161;43.136;24.706;2023-07-31T06:30:55;98768.91;;;29.16;45.15
69879;BME280;57161;43.136;24.706;2023-07-31T06:33:20;98767.44;;;29.15;45.19
69879;BME280;57161;43.136;24.706;2023-07-31T06:35:46;98766.75;;;29.17;45.48
69879;BME280;57161;43.136;24.706;2023-07-31T06:38:11;98760.22;;;29.14;45.43
69879;BME280;57161;43.136;24.706;2023-07-31T06:40:37;98741.34;;;29.05;45.69
69879;BME280;57161;43.136;24.706;2023-07-31T06:43:02;98758.03;;;29.13;45.58
69879;BME280;57161;43.136;24.706;2023-07-31T06:45:36;98774.66;;;29.16;45.32
69879;BME280;57161;43.136;24.706;2023-07-31T06:48:03;98759.44;;;29.12;45.73
69879;BME280;57161;43.136;24.706;2023-07-31T06:50:32;98775.34;;;29.15;45.87
69879;BME280;57161;43.136;24.706;2023-07-31T06:52:58;98772.28;;;29.07;45.83
69879;BME280;57161;43.136;24.706;2023-07-31T06:55:24;98765.09;;;29.08;45.64
69879;BME280;57161;43.136;24.706;2023-07-31T06:57:52;98754.81;;;28.96;45.72
69879;BME280;57161;43.136;24.706;2023-07-31T07:00:19;98755.59;;;28.99;45.75
69879;BME280;57161;43.136;24.706;2023-07-31T07:02:45;98771.44;;;29.00;46.21
69879;BME280;57161;43.136;24.706;2023-07-31T07:05:14;98777.06;;;28.96;46.02
69879;BME280;57161;43.136;24.706;2023-07-31T07:07:40;98752.19;;;28.77;46.07
69879;BME280;57161;43.136;24.706;2023-07-31T07:10:06;98783.47;;;28.92;46.06
69879;BME280;57161;43.136;24.706;2023-07-31T07:12:32;98771.16;;;28.88;46.06
69879;BME280;57161;43.136;24.706;2023-07-31T07:14:59;98768.31;;;28.90;46.36
69879;BME280;57161;43.136;24.706;2023-07-31T07:17:25;98784.84;;;28.89;46.06
69879;BME280;57161;43.136;24.706;2023-07-31T07:19:51;98774.09;;;28.92;46.46
69879;BME280;57161;43.136;24.706;2023-07-31T07:22:17;98782.00;;;28.91;46.17
69879;BME280;57161;43.136;24.706;2023-07-31T07:24:43;98785.63;;;28.92;46.16
69879;BME280;57161;43.136;24.706;2023-07-31T07:27:08;98779.06;;;28.87;46.10
69879;BME280;57161;43.136;24.706;2023-07-31T07:29:34;98798.56;;;28.93;46.18
69879;BME280;57161;43.136;24.706;2023-07-31T07:32:00;98789.81;;;28.87;46.17
69879;BME280;57161;43.136;24.706;2023-07-31T07:34:27;98792.09;;;28.92;46.34
69879;BME280;57161;43.136;24.706;2023-07-31T07:36:53;98794.25;;;28.92;46.23
69879;BME280;57161;43.136;24.706;2023-07-31T07:39:19;98805.09;;;28.95;46.01
69879;BME280;57161;43.136;24.706;2023-07-31T07:41:44;98808.63;;;28.92;46.11
69879;BME280;57161;43.136;24.706;2023-07-31T07:44:10;98816.66;;;28.97;46.09
69879;BME280;57161;43.136;24.706;2023-07-31T07:46:35;98793.31;;;28.83;46.20
69879;BME280;57161;43.136;24.706;2023-07-31T07:49:01;98821.63;;;28.95;46.14
69879;BME280;57161;43.136;24.706;2023-07-31T07:51:26;98806.38;;;28.88;46.42
69879;BME280;57161;43.136;24.706;2023-07-31T07:53:52;98790.47;;;28.85;46.27
69879;BME280;57161;43.136;24.706;2023-07-31T07:56:17;98790.56;;;28.87;46.07
69879;BME280;57161;43.136;24.706;2023-07-31T07:58:43;98794.25;;;28.92;46.29
69879;BME280;57161;43.136;24.706;2023-07-31T08:01:08;98808.22;;;29.06;46.19
69879;BME280;57161;43.136;24.706;2023-07-31T08:03:34;98806.75;;;29.05;46.31
69879;BME280;57161;43.136;24.706;2023-07-31T08:06:00;98803.91;;;29.07;46.32
69879;BME280;57161;43.136;24.706;2023-07-31T08:08:26;98801.69;;;29.03;46.01
69879;BME280;57161;43.136;24.706;2023-07-31T08:10:51;98807.53;;;29.07;46.20
69879;BME280;57161;43.136;24.706;2023-07-31T08:13:17;98801.81;;;29.09;46.23
69879;BME280;57161;43.136;24.706;2023-07-31T08:15:43;98791.59;;;29.02;46.19
69879;BME280;57161;43.136;24.706;2023-07-31T08:18:09;98798.25;;;29.11;46.06
69879;BME280;57161;43.136;24.706;2023-07-31T08:20:34;98787.13;;;28.95;46.33
69879;BME280;57161;43.136;24.706;2023-07-31T08:23:00;98803.22;;;29.08;46.09
69879;BME280;57161;43.136;24.706;2023-07-31T08:25:25;98800.38;;;29.10;45.89
69879;BME280;57161;43.136;24.706;2023-07-31T08:27:51;98804.00;;;29.11;46.08
69879;BME280;57161;43.136;24.706;2023-07-31T08:30:18;98794.63;;;29.10;46.23
69879;BME280;57161;43.136;24.706;2023-07-31T08:32:44;98820.63;;;29.14;45.95
69879;BME280;57161;43.136;24.706;2023-07-31T08:35:09;98809.75;;;29.11;45.99
69879;BME280;57161;43.136;24.706;2023-07-31T08:37:35;98806.97;;;29.15;46.25
69879;BME280;57161;43.136;24.706;2023-07-31T08:40:01;98809.13;;;29.14;46.24
69879;BME280;57161;43.136;24.706;2023-07-31T08:42:26;98800.53;;;29.16;46.04
69879;BME280;57161;43.136;24.706;2023-07-31T08:44:59;98810.63;;;29.17;45.98
69879;BME280;57161;43.136;24.706;2023-07-31T08:47:25;98789.69;;;29.13;46.12
69879;BME280;57161;43.136;24.706;2023-07-31T08:49:51;98817.09;;;29.18;46.20
69879;BME280;57161;43.136;24.706;2023-07-31T08:52:17;98800.50;;;29.14;46.34
69879;BME280;57161;43.136;24.706;2023-07-31T08:54:43;98802.69;;;29.16;46.02
69879;BME280;57161;43.136;24.706;2023-07-31T08:57:09;98793.22;;;29.11;46.06
69879;BME280;57161;43.136;24.706;2023-07-31T08:59:36;98797.63;;;29.14;46.21
69879;BME280;57161;43.136;24.706;2023-07-31T09:02:06;98801.91;;;29.13;46.04
69879;BME280;57161;43.136;24.706;2023-07-31T09:04:34;98812.09;;;29.18;45.92
69879;BME280;57161;43.136;24.706;2023-07-31T09:07:01;98807.78;;;29.19;46.24
69879;BME280;57161;43.136;24.706;2023-07-31T09:09:29;98810.72;;;29.21;45.95
69879;BME280;57161;43.136;24.706;2023-07-31T09:11:54;98810.75;;;29.23;46.34
69879;BME280;57161;43.136;24.706;2023-07-31T09:14:41;98800.69;;;29.24;46.34
69879;BME280;57161;43.136;24.706;2023-07-31T09:17:15;98806.50;;;29.26;46.29
69879;BME280;57161;43.136;24.706;2023-07-31T09:19:43;98798.59;;;29.27;46.13
69879;BME280;57161;43.136;24.706;2023-07-31T09:22:08;98812.16;;;29.22;45.98
69879;BME280;57161;43.136;24.706;2023-07-31T09:24:34;98811.56;;;29.28;46.39
69879;BME280;57161;43.136;24.706;2023-07-31T09:27:01;98805.81;;;29.28;46.08
69879;BME280;57161;43.136;24.706;2023-07-31T09:29:28;98802.06;;;29.21;46.08
69879;BME280;57161;43.136;24.706;2023-07-31T09:31:55;98811.50;;;29.26;46.36
69879;BME280;57161;43.136;24.706;2023-07-31T09:34:28;98791.03;;;29.10;45.99
69879;BME280;57161;43.136;24.706;2023-07-31T09:36:56;98811.41;;;29.20;46.32
69879;BME280;57161;43.136;24.706;2023-07-31T09:39:22;98807.84;;;29.21;46.28
69879;BME280;57161;43.136;24.706;2023-07-31T09:41:54;98808.56;;;29.22;46.06
69879;BME280;57161;43.136;24.706;2023-07-31T09:44:19;98810.91;;;29.29;46.19
69879;BME280;57161;43.136;24.706;2023-07-31T09:46:45;98819.53;;;29.29;46.34
69879;BME280;57161;43.136;24.706;2023-07-31T09:49:13;98809.47;;;29.31;45.96
69879;BME280;57161;43.136;24.706;2023-07-31T09:51:41;98822.34;;;29.27;46.08
69879;BME280;57161;43.136;24.706;2023-07-31T09:54:16;98815.97;;;29.31;46.23
69879;BME280;57161;43.136;24.706;2023-07-31T09:56:46;98813.78;;;29.29;46.02
69879;BME280;57161;43.136;24.706;2023-07-31T09:59:13;98812.34;;;29.31;46.00
69879;BME280;57161;43.136;24.706;2023-07-31T10:01:43;98798.44;;;29.19;46.26
69879;BME280;57161;43.136;24.706;2023-07-31T10:04:10;98805.03;;;29.25;45.94
69879;BME280;57161;43.136;24.706;2023-07-31T10:06:37;98785.31;;;29.12;46.21
69879;BME280;57161;43.136;24.706;2023-07-31T10:09:08;98813.78;;;29.29;46.25
69879;BME280;57161;43.136;24.706;2023-07-31T10:11:46;98813.78;;;29.29;46.25
69879;BME280;57161;43.136;24.706;2023-07-31T10:14:18;98812.91;;;29.23;46.03
69879;BME280;57161;43.136;24.706;2023-07-31T10:16:45;98816.56;;;29.27;46.22
69879;BME280;57161;43.136;24.706;2023-07-31T10:19:11;98810.16;;;29.29;46.13
69879;BME280;57161;43.136;24.706;2023-07-31T10:21:37;98813.66;;;29.25;46.09
69879;BME280;57161;43.136;24.706;2023-07-31T10:24:05;98803.53;;;29.22;46.07
69879;BME280;57161;43.136;24.706;2023-07-31T10:26:32;98816.69;;;29.32;46.14
69879;BME280;57161;43.136;24.706;2023-07-31T10:28:59;98814.50;;;29.30;46.25
69879;BME280;57161;43.136;24.706;2023-07-31T10:31:27;98805.91;;;29.32;46.06
69879;BME280;57161;43.136;24.706;2023-07-31T10:33:53;98805.06;;;29.27;46.10
69879;BME280;57161;43.136;24.706;2023-07-31T10:36:19;98813.84;;;29.34;45.88
69879;BME280;57161;43.136;24.706;2023-07-31T10:38:48;98805.91;;;29.32;45.93
69879;BME280;57161;43.136;24.706;2023-07-31T10:41:15;98805.25;;;29.36;45.96
69879;BME280;57161;43.136;24.706;2023-07-31T10:43:40;98808.06;;;29.32;46.07
69879;BME280;57161;43.136;24.706;2023-07-31T10:46:11;98802.38;;;29.36;46.11
69879;BME280;57161;43.136;24.706;2023-07-31T10:48:38;98806.75;;;29.39;46.07
69879;BME280;57161;43.136;24.706;2023-07-31T10:51:08;98803.88;;;29.39;46.20
69879;BME280;57161;43.136;24.706;2023-07-31T10:53:34;98796.66;;;29.38;45.94
69879;BME280;57161;43.136;24.706;2023-07-31T10:56:01;98787.19;;;29.31;45.88
69879;BME280;57161;43.136;24.706;2023-07-31T10:58:27;98795.31;;;29.43;46.21
69879;BME280;57161;43.136;24.706;2023-07-31T11:00:57;98798.19;;;29.43;46.15
69879;BME280;57161;43.136;24.706;2023-07-31T11:03:40;98796.75;;;29.42;45.73
69879;BME280;57161;43.136;24.706;2023-07-31T11:06:06;98787.34;;;29.39;46.13
69879;BME280;57161;43.136;24.706;2023-07-31T11:08:34;98783.13;;;29.44;45.81
69879;BME280;57161;43.136;24.706;2023-07-31T11:15:57;98767.81;;;29.34;45.75
69879;BME280;57161;43.136;24.706;2023-07-31T11:18:23;98786.09;;;29.46;45.89
69879;BME280;57161;43.136;24.706;2023-07-31T11:20:49;98772.44;;;29.47;45.96
69879;BME280;57161;43.136;24.706;2023-07-31T11:23:17;98768.72;;;29.44;46.13
69879;BME280;57161;43.136;24.706;2023-07-31T11:25:43;98777.50;;;29.48;46.23
69879;BME280;57161;43.136;24.706;2023-07-31T11:28:14;98776.09;;;29.51;46.07
69879;BME280;57161;43.136;24.706;2023-07-31T11:30:40;98764.59;;;29.51;45.94
69879;BME280;57161;43.136;24.706;2023-07-31T11:33:07;98750.84;;;29.46;45.89
69879;BME280;57161;43.136;24.706;2023-07-31T11:35:34;98767.50;;;29.53;46.28
69879;BME280;57161;43.136;24.706;2023-07-31T11:38:02;98768.97;;;29.54;46.17
69879;BME280;57161;43.136;24.706;2023-07-31T11:40:28;98734.75;;;29.35;45.89
69879;BME280;57161;43.136;24.706;2023-07-31T11:50:40;98672.22;;;28.99;45.99
69879;BME280;57161;43.136;24.706;2023-07-31T11:53:07;98664.91;;;28.94;46.21
69879;BME280;57161;43.136;24.706;2023-07-31T12:00:46;98728.19;;;29.66;46.36
69879;BME280;57161;43.136;24.706;2023-07-31T12:03:16;98639.13;;;28.98;46.28
69879;BME280;57161;43.136;24.706;2023-07-31T12:06:06;98724.69;;;29.72;46.47
69879;BME280;57161;43.136;24.706;2023-07-31T12:08:44;98640.84;;;29.13;46.05
69879;BME280;57161;43.136;24.706;2023-07-31T12:21:52;98687.38;;;29.78;46.76
69879;BME280;57161;43.136;24.706;2023-07-31T12:24:18;98698.38;;;29.92;46.81
69879;BME280;57161;43.136;24.706;2023-07-31T12:26:45;98704.19;;;29.94;46.89
69879;BME280;57161;43.136;24.706;2023-07-31T12:29:14;98689.69;;;29.87;46.53
69879;BME280;57161;43.136;24.706;2023-07-31T12:31:41;98693.44;;;29.96;46.81
69879;BME280;57161;43.136;24.706;2023-07-31T12:34:18;98699.22;;;29.96;46.57
69879;BME280;57161;43.136;24.706;2023-07-31T12:39:21;98698.41;;;29.94;46.51
69879;BME280;57161;43.136;24.706;2023-07-31T12:41:46;98697.81;;;29.99;46.33
69879;BME280;57161;43.136;24.706;2023-07-31T12:44:12;98698.50;;;29.98;46.71
69879;BME280;57161;43.136;24.706;2023-07-31T12:46:37;98699.97;;;29.99;46.63
69879;BME280;57161;43.136;24.706;2023-07-31T12:49:03;98693.59;;;30.04;46.62
69879;BME280;57161;43.136;24.706;2023-07-31T12:51:28;98679.84;;;30.01;46.94
69879;BME280;57161;43.136;24.706;2023-07-31T12:53:53;98672.00;;;30.05;46.61
69879;BME280;57161;43.136;24.706;2023-07-31T12:56:19;98676.44;;;30.10;46.99
69879;BME280;57161;43.136;24.706;2023-07-31T12:58:45;98671.44;;;30.15;47.02
69879;BME280;57161;43.136;24.706;2023-07-31T13:01:11;98675.16;;;30.22;46.70
69879;BME280;57161;43.136;24.706;2023-07-31T13:03:36;98665.69;;;30.15;47.18
69879;BME280;57161;43.136;24.706;2023-07-31T13:06:03;98664.34;;;30.22;46.98
69879;BME280;57161;43.136;24.706;2023-07-31T13:08:28;98667.38;;;30.32;47.24
69879;BME280;57161;43.136;24.706;2023-07-31T13:10:54;98665.22;;;30.33;47.00
69879;BME280;57161;43.136;24.706;2023-07-31T13:13:29;98667.44;;;30.36;47.01
69879;BME280;57161;43.136;24.706;2023-07-31T13:15:59;98668.91;;;30.39;47.11
69879;BME280;57161;43.136;24.706;2023-07-31T13:18:25;98671.09;;;30.41;47.04
69879;BME280;57161;43.136;24.706;2023-07-31T13:20:51;98658.84;;;30.40;47.10
69879;BME280;57161;43.136;24.706;2023-07-31T13:23:16;98648.81;;;30.43;46.98
69879;BME280;57161;43.136;24.706;2023-07-31T13:25:41;98638.63;;;30.36;46.94
69879;BME280;57161;43.136;24.706;2023-07-31T13:28:08;98661.25;;;30.58;47.25
69879;BME280;57161;43.136;24.706;2023-07-31T13:30:33;98651.97;;;30.62;47.19
69879;BME280;57161;43.136;24.706;2023-07-31T13:32:59;98643.22;;;30.56;47.11
69879;BME280;57161;43.136;24.706;2023-07-31T13:35:24;98657.84;;;30.70;47.06
69879;BME280;57161;43.136;24.706;2023-07-31T13:37:50;98638.25;;;30.60;47.17
69879;BME280;57161;43.136;24.706;2023-07-31T13:40:15;98637.63;;;30.68;47.34
69879;BME280;57161;43.136;24.706;2023-07-31T13:42:41;98649.34;;;30.80;47.48
69879;BME280;57161;43.136;24.706;2023-07-31T13:45:08;98649.34;;;30.82;47.44